Terminal Aerodrome Forecast
Issued by NWS

Home | Current Version | Previous Version | Text Only | Print | Product List | Glossary On
Versions: 1 2 3 4 5 6 7 8 9 10 11 12 13 14 15 16 17 18 19 20 21 22 23 24 25 26 27 28 29 30 31 32 33 34 35 36 37 38 39 40 41 42 43 44 45 46 47 48 49 50
327
FTUS45 KGJT 241618 AAA
TAFTEX
TAF AMD
KTEX 241618Z 2416/2512 26005KT 4SM -SN SCT009 BKN015 OVC030
      TEMPO 2416/2418 1SM -SN BR BKN005 OVC010
     FM241800 29011G21KT P6SM VCSH BKN025
      TEMPO 2418/2422 1SM -SHSN BR OVC012
     FM250100 28007KT P6SM SCT025
     FM250500 18007KT P6SM FEW140=

USA.gov is the U.S. government's official web portal to all federal, state and local government web resources and services.